Hlavní strana
METAR-TAF:

METAR-TAF

Letiště :

Ho Či Minovo Město, Vietnam

Letiště Tân Sơn Nhất

zeměpisná šířka: 10-49N, zeměpisná délka: 106-40E, výška: 19 m

Aktuální stav počasí

Zpráva byla vytvořena před 43 minutami, v 06:30 UTC
vítr z různých směrů 4 kt
Teplota 32°C
Vlhkost vzduchu 56%
Tlak 1007 hPa
Viditelnost 10 km a více
Skoro jasno ve výšce 1700 ft
Oblačno až skoro zataženo ve výšce 5000 ft

METAR: VVTS 200630Z VRB04KT 9999 FEW017 BKN050 32/22 Q1007 NOSIG

Čas: 14:13 (07:13 UTC)

Předpověď počasí

Zpráva byla vytvořena před 2 hodinami a 13 minutami, v 05:00 UTC
Předpověď platná od 20 v 06 UTC do 21 v 12 UTC
Východojihovýchodní vítr 8 kt
Viditelnost 10 km a více
Polojasno ve výšce 1700 ft
Polojasno ve výšce 4000 ft
Dočasný
od 20 v 09 UTC do 20 v 14 UTC
Viditelnost: 5000 m
Oblačno až skoro zataženo ve výšce 1500 ft
Skoro jasno ve výšce 1700 ft, Cumulonimbus.
bouřka, déšť

TAF: VVTS 200500Z 2006/2112 12008KT 9999 SCT017 SCT040 TEMPO 2009/2014 5000 TSRA BKN015 FEW017CB

Stav a předpovědi počasí z více než 4 000 letišť (zprávy METAR a TAF).

Červené a žluté tečky na mapě představují dostupné meteorologické stanice.

Když kurzor umístíte na tečku, zobrazí se název stanice.

Pak kliknutím zobrazíte stav a předpověď počasí.

Chcete-li změnit mapu, kliknutím na zelené tlačítko se znaménkem +mapu přiblížíte, kliknutím na zelené tlačítko se znaménkem – mapu oddálíte a kliknutím na zelené šipky přejdete na sousední mapy.


METAR-TAF: